Dothan Regional Airport
KDHN : now visible

Airfield :











YOU CAN JOIN US ON...

 
LOGIN :

Register | Disclaimer

   EN    FR    IT 

 









Legend :    VFR   Marginal VFR   IFR   Intensive IFR   Very Intensive IFR
Visi :
Ceiling :
>= 8 km
>= 3000ft
5 to 8 km
1000 to 3000 ft
1500m to 5 km
500 to 1000 ft
800 to 1500m
200 to 500 ft
< 800m
< 200 ft
Symbols :   Thunderstorms  Fog  Heavy snow  Heavy precipitations  Wind > 20 kt







- Airport Elevation : 401 ft
- IATA code : DHN


KDHN - Dothan Regional

CURRENT METAR :
  • 181853Z VRB06KT 10SM CLR 35/21 A3009 RMK AO2 SLP181 T03500206

EXPIRED METARs :
  • 181753Z 22007KT 10SM CLR 34/19 A3011 RMK AO2 SLP189 T03440194 10344 20261 58003
  • 181653Z 27005KT 10SM SCT055 33/21 A3012 RMK AO2 SLP193 T03280206

TAF KDHN
Valid from the 18 at 18:00 until the 19 at 18:00 UTC


181720Z 1818/1918 24005KT P6SM SCT060 BKN250
FM182000 27008KT P6SM VCTS BKN050CB
FM190000 23004KT P6SM SCT150 BKN250
KZJX FIR / North America



MET'MAP, your aeronautical weather chart ! - Copyright ORBIFLY December 2007 - Disclaimer

ORBIFLY MET'MAP TEAM :

Programming & Development : Alexandra Zaïnal
Concept & Development : Baudouin d'Aumeries
Co-Development & Prog : Marc-Olivier Méhu
Technical & hardware support : Manuel Goepfert

Contact : metmap@orbifly.com




SOURCES & CREDITS :

   NOAA       Earth
Advisory